createdAt,value
2019-04-07T00:00:18.241Z,6.70
2019-04-07T00:04:23.730Z,6.60
2019-04-07T00:08:28.832Z,6.50
2019-04-07T00:12:34.532Z,6.40
2019-04-07T00:16:40.006Z,6.30
2019-04-07T00:20:45.311Z,6.30
2019-04-07T00:24:50.597Z,6.10
2019-04-07T00:28:55.641Z,6.10
2019-04-07T00:33:00.832Z,6.10
2019-04-07T00:37:05.977Z,6.00
2019-04-07T00:41:11.016Z,5.90
2019-04-07T00:45:16.394Z,5.80
2019-04-07T00:49:21.521Z,5.70
2019-04-07T00:53:26.812Z,5.60
2019-04-07T00:57:31.813Z,5.40
2019-04-07T01:01:37.218Z,5.30
2019-04-07T01:05:43.435Z,5.20
2019-04-07T01:09:48.618Z,5.20
2019-04-07T01:13:53.949Z,5.20
2019-04-07T01:17:59.058Z,5.10
2019-04-07T01:22:04.131Z,5.00
2019-04-07T01:26:09.708Z,4.90
2019-04-07T01:30:15.146Z,4.90
2019-04-07T01:34:20.636Z,4.90
2019-04-07T01:38:25.832Z,4.90
2019-04-07T01:42:32.496Z,4.80
2019-04-07T01:46:51.537Z,4.80
2019-04-07T01:50:58.206Z,4.80
2019-04-07T01:55:11.339Z,4.80
2019-04-07T01:59:30.294Z,4.70
2019-04-07T02:03:37.378Z,4.60
2019-04-07T02:07:47.099Z,4.60
2019-04-07T02:12:02.691Z,4.50
2019-04-07T02:16:15.930Z,4.40
2019-04-07T02:21:05.420Z,4.40
2019-04-07T02:25:20.970Z,4.30
2019-04-07T02:29:42.686Z,4.30
2019-04-07T02:33:49.948Z,4.20
2019-04-07T02:37:56.910Z,4.20
2019-04-07T02:42:20.279Z,4.20
2019-04-07T02:46:46.288Z,4.20
2019-04-07T02:51:05.764Z,4.10
2019-04-07T02:55:18.520Z,4.00
2019-04-07T02:59:42.902Z,3.90
2019-04-07T03:03:52.651Z,3.90
2019-04-07T03:08:05.864Z,3.80
2019-04-07T03:12:15.494Z,3.70
2019-04-07T03:16:34.167Z,3.60
2019-04-07T03:20:53.833Z,3.60
2019-04-07T03:25:03.778Z,3.50
2019-04-07T03:29:23.558Z,3.60
2019-04-07T03:33:32.816Z,3.70
2019-04-07T03:37:57.265Z,3.80
2019-04-07T03:42:13.054Z,3.80
2019-04-07T03:46:28.759Z,3.70
2019-04-07T03:50:38.717Z,3.60
2019-04-07T03:54:46.502Z,3.50
2019-04-07T03:59:02.038Z,3.50
2019-04-07T04:03:08.827Z,3.50
2019-04-07T04:07:26.614Z,3.50
2019-04-07T04:11:23.697Z,3.40
2019-04-07T04:15:31.277Z,3.30
2019-04-07T04:19:36.336Z,3.30
2019-04-07T04:23:43.027Z,3.30
2019-04-07T04:27:48.899Z,3.30
2019-04-07T04:31:54.613Z,3.30
2019-04-07T04:36:00.550Z,3.30
2019-04-07T04:40:07.634Z,3.30
2019-04-07T04:44:12.593Z,3.40
2019-04-07T04:48:17.639Z,3.50
2019-04-07T04:52:22.642Z,3.50
2019-04-07T04:56:28.599Z,3.70
2019-04-07T05:00:34.076Z,4.20
2019-04-07T05:04:39.869Z,5.10
2019-04-07T05:08:45.612Z,6.00
2019-04-07T05:12:50.801Z,7.00
2019-04-07T05:16:56.086Z,8.10
2019-04-07T05:21:01.331Z,9.20
2019-04-07T05:25:07.467Z,10.50
2019-04-07T05:29:12.745Z,11.70
2019-04-07T05:33:18.018Z,13.10
2019-04-07T05:37:24.137Z,14.60
2019-04-07T05:41:29.647Z,15.60
2019-04-07T05:45:36.661Z,17.10
2019-04-07T05:49:41.983Z,18.10
2019-04-07T05:53:48.387Z,18.70
2019-04-07T05:57:54.225Z,19.50
2019-04-07T06:02:02.528Z,20.20
2019-04-07T06:06:08.165Z,21.60
2019-04-07T06:10:14.504Z,21.90
2019-04-07T06:14:20.503Z,22.60
2019-04-07T06:18:26.040Z,23.70
2019-04-07T06:22:31.512Z,25.60
2019-04-07T06:26:37.116Z,27.30
2019-04-07T06:30:42.881Z,28.10
2019-04-07T06:34:49.902Z,28.70
2019-04-07T06:38:56.854Z,28.90
2019-04-07T06:43:05.247Z,29.20
2019-04-07T06:47:15.885Z,29.30
2019-04-07T06:51:24.046Z,30.70
2019-04-07T06:55:46.108Z,30.70
2019-04-07T07:00:09.465Z,31.70
2019-04-07T07:04:35.572Z,32.70
2019-04-07T07:08:57.090Z,32.60
2019-04-07T07:13:11.648Z,32.10
2019-04-07T07:17:36.530Z,31.90
2019-04-07T07:21:44.418Z,32.40
2019-04-07T07:25:50.500Z,32.40
2019-04-07T07:29:56.545Z,33.00
2019-04-07T07:34:01.837Z,33.00
2019-04-07T07:38:07.618Z,32.40
2019-04-07T07:42:13.783Z,32.80
2019-04-07T07:46:21.859Z,32.90
2019-04-07T07:50:26.682Z,33.30
2019-04-07T07:54:32.170Z,33.20
2019-04-07T07:58:37.558Z,32.30
2019-04-07T08:02:42.844Z,33.80
2019-04-07T08:06:48.130Z,35.60
2019-04-07T08:10:56.175Z,37.10
2019-04-07T08:15:00.345Z,38.20
2019-04-07T08:19:08.473Z,38.60
2019-04-07T08:23:13.597Z,37.10
2019-04-07T08:27:19.599Z,34.20
2019-04-07T08:31:25.052Z,32.20
2019-04-07T08:35:30.875Z,30.60
2019-04-07T08:39:37.429Z,31.10
2019-04-07T08:43:43.043Z,31.70
2019-04-07T08:47:50.012Z,32.20
2019-04-07T08:51:56.055Z,29.80
2019-04-07T08:56:01.461Z,30.10
2019-04-07T09:00:14.923Z,30.70
2019-04-07T09:04:17.849Z,30.20
2019-04-07T09:08:24.137Z,30.10
2019-04-07T09:12:31.995Z,29.40
2019-04-07T09:16:56.201Z,28.70
2019-04-07T09:21:20.325Z,29.00
2019-04-07T09:25:27.299Z,30.10
2019-04-07T09:29:51.100Z,31.40
2019-04-07T09:34:03.872Z,30.50
2019-04-07T09:38:14.425Z,28.90
2019-04-07T09:42:40.156Z,28.30
2019-04-07T09:46:56.312Z,27.70
2019-04-07T09:51:06.949Z,29.30
2019-04-07T09:55:17.856Z,27.10
2019-04-07T09:59:30.716Z,25.40
2019-04-07T10:03:52.690Z,25.90
2019-04-07T10:08:13.776Z,26.50
2019-04-07T10:12:23.226Z,25.90
2019-04-07T10:16:33.101Z,27.20
2019-04-07T10:20:55.874Z,28.10
2019-04-07T10:25:04.369Z,29.30
2019-04-07T10:29:18.644Z,28.90
2019-04-07T10:33:41.665Z,31.20
2019-04-07T10:38:04.012Z,28.80
2019-04-07T10:42:11.371Z,26.40
2019-04-07T10:46:34.574Z,24.30
2019-04-07T10:50:41.517Z,22.60
2019-04-07T10:54:49.304Z,24.10
2019-04-07T10:59:00.425Z,25.30
2019-04-07T11:03:07.445Z,26.90
2019-04-07T11:07:17.431Z,25.20
2019-04-07T11:11:26.617Z,23.10
2019-04-07T11:15:34.076Z,21.90
2019-04-07T11:19:57.275Z,20.90
2019-04-07T11:24:22.618Z,20.90
2019-04-07T11:28:29.536Z,21.60
2019-04-07T11:32:53.315Z,20.80
2019-04-07T11:37:00.593Z,20.60
2019-04-07T11:41:07.761Z,21.00
2019-04-07T11:45:22.539Z,21.30
2019-04-07T11:49:32.679Z,21.10
2019-04-07T11:53:40.103Z,21.60
2019-04-07T11:58:14.394Z,21.50
2019-04-07T12:02:22.126Z,21.60
2019-04-07T12:06:33.198Z,21.70
2019-04-07T12:11:02.262Z,21.40
2019-04-07T12:15:12.030Z,20.50
2019-04-07T12:19:28.907Z,20.10
2019-04-07T12:23:46.474Z,20.20
2019-04-07T12:28:03.436Z,20.00
2019-04-07T12:32:20.263Z,19.60
2019-04-07T12:36:31.060Z,19.20
2019-04-07T12:41:11.016Z,19.30
2019-04-07T12:45:03.738Z,19.40
2019-04-07T12:49:10.726Z,19.50
2019-04-07T12:53:23.842Z,19.50
2019-04-07T12:57:39.439Z,19.20
2019-04-07T13:01:57.917Z,18.70
2019-04-07T13:06:07.589Z,18.90
2019-04-07T13:10:32.498Z,18.70
2019-04-07T13:14:42.816Z,18.70
2019-04-07T13:19:11.756Z,18.90
2019-04-07T13:23:36.986Z,18.80
2019-04-07T13:27:46.862Z,18.60
2019-04-07T13:32:10.324Z,18.30
2019-04-07T13:36:17.401Z,18.30
2019-04-07T13:40:36.634Z,18.40
2019-04-07T13:44:49.651Z,18.50
2019-04-07T13:49:09.664Z,18.50
2019-04-07T13:53:32.875Z,18.40
2019-04-07T13:57:58.113Z,18.40
2019-04-07T14:02:13.223Z,19.00
2019-04-07T14:06:20.531Z,19.20
2019-04-07T14:10:27.512Z,18.90
2019-04-07T14:14:45.893Z,18.70
2019-04-07T14:19:08.896Z,18.50
2019-04-07T14:23:31.770Z,18.40
2019-04-07T14:27:47.673Z,18.20
2019-04-07T14:31:55.516Z,18.30
2019-04-07T14:36:08.273Z,18.50
2019-04-07T14:40:21.334Z,18.20
2019-04-07T14:44:29.270Z,17.90
2019-04-07T14:48:53.297Z,17.90
2019-04-07T14:53:09.310Z,18.10
2019-04-07T14:57:22.500Z,18.30
2019-04-07T15:01:46.848Z,18.10
2019-04-07T15:05:56.360Z,17.80
2019-04-07T15:10:20.243Z,17.60
2019-04-07T15:14:26.286Z,17.60
2019-04-07T15:18:31.565Z,17.70
2019-04-07T15:22:36.843Z,17.60
2019-04-07T15:26:42.492Z,17.50
2019-04-07T15:30:49.567Z,17.50
2019-04-07T15:34:55.734Z,17.30
2019-04-07T15:39:01.228Z,17.30
2019-04-07T15:43:10.917Z,17.40
2019-04-07T15:47:15.096Z,17.40
2019-04-07T15:51:20.365Z,17.50
2019-04-07T15:55:42.199Z,17.50
2019-04-07T15:59:33.065Z,17.40
2019-04-07T16:03:38.857Z,17.30
2019-04-07T16:07:44.903Z,17.20
2019-04-07T16:11:50.869Z,17.20
2019-04-07T16:15:57.536Z,17.20
2019-04-07T16:20:03.720Z,17.20
2019-04-07T16:24:09.510Z,17.20
2019-04-07T16:28:16.280Z,17.00
2019-04-07T16:32:22.107Z,16.90
2019-04-07T16:36:28.138Z,16.80
2019-04-07T16:40:33.914Z,16.70
2019-04-07T16:44:43.261Z,16.70
2019-04-07T16:48:46.223Z,16.60
2019-04-07T16:52:51.501Z,16.60
2019-04-07T16:56:58.132Z,16.40
2019-04-07T17:01:04.632Z,16.30
2019-04-07T17:05:11.981Z,16.20
2019-04-07T17:09:24.704Z,16.10
2019-04-07T17:13:38.794Z,16.00
2019-04-07T17:17:38.885Z,15.90
2019-04-07T17:21:45.319Z,15.80
2019-04-07T17:25:52.922Z,15.70
2019-04-07T17:29:58.813Z,15.60
2019-04-07T17:34:07.383Z,15.60
2019-04-07T17:38:13.785Z,15.50
2019-04-07T17:42:22.577Z,15.40
2019-04-07T17:46:29.662Z,15.40
2019-04-07T17:50:53.100Z,15.30
2019-04-07T17:55:15.144Z,15.20
2019-04-07T17:59:22.123Z,15.20
2019-04-07T18:03:39.099Z,15.10
2019-04-07T18:07:53.258Z,15.00
2019-04-07T18:12:15.699Z,14.90
2019-04-07T18:16:37.764Z,14.70
2019-04-07T18:20:50.482Z,14.60
2019-04-07T18:24:59.631Z,14.40
2019-04-07T18:29:11.733Z,14.30
2019-04-07T18:33:20.661Z,14.30
2019-04-07T18:37:44.267Z,14.20
2019-04-07T18:41:51.638Z,14.10
2019-04-07T18:46:01.951Z,14.00
2019-04-07T18:50:22.123Z,14.00
2019-04-07T18:54:32.478Z,14.00
2019-04-07T18:58:54.646Z,13.90
2019-04-07T19:03:09.257Z,14.00
2019-04-07T19:07:34.617Z,13.90
2019-04-07T19:11:47.051Z,13.90
2019-04-07T19:16:15.493Z,13.90
2019-04-07T19:20:19.415Z,13.80
2019-04-07T19:24:30.050Z,13.70
2019-04-07T19:28:47.769Z,13.60
2019-04-07T19:33:00.499Z,13.50
2019-04-07T19:37:15.323Z,13.60
2019-04-07T19:41:26.405Z,13.60
2019-04-07T19:45:39.291Z,13.70
2019-04-07T19:49:55.008Z,13.60
2019-04-07T19:54:02.494Z,13.60
2019-04-07T19:58:21.820Z,13.60
2019-04-07T20:02:38.018Z,13.50
2019-04-07T20:06:49.008Z,13.40
2019-04-07T20:11:12.276Z,13.30
2019-04-07T20:15:30.457Z,13.20
2019-04-07T20:19:53.713Z,13.10
2019-04-07T20:24:05.682Z,12.90
2019-04-07T20:28:18.147Z,12.70
2019-04-07T20:32:26.191Z,12.50
2019-04-07T20:36:36.022Z,12.50
2019-04-07T20:40:49.802Z,12.50
2019-04-07T20:45:16.287Z,12.50
2019-04-07T20:49:38.055Z,12.40
2019-04-07T20:53:47.332Z,12.40
2019-04-07T20:58:18.717Z,12.30
2019-04-07T21:02:37.772Z,12.20
2019-04-07T21:06:44.730Z,12.10
2019-04-07T21:11:07.769Z,12.00
2019-04-07T21:15:20.816Z,11.90
2019-04-07T21:19:38.285Z,11.80
2019-04-07T21:24:01.529Z,11.70
2019-04-07T21:28:08.963Z,11.60
2019-04-07T21:32:25.257Z,11.50
2019-04-07T21:36:32.281Z,11.40
2019-04-07T21:40:48.348Z,11.30
2019-04-07T21:45:00.009Z,11.20
2019-04-07T21:49:21.308Z,11.10
2019-04-07T21:53:30.377Z,10.90
2019-04-07T21:57:53.621Z,10.70
2019-04-07T22:02:00.682Z,10.60
2019-04-07T22:06:14.471Z,10.50
2019-04-07T22:10:21.732Z,10.50
2019-04-07T22:14:28.322Z,10.40
2019-04-07T22:18:34.446Z,10.40
2019-04-07T22:22:40.842Z,10.30
2019-04-07T22:26:49.127Z,10.30
2019-04-07T22:30:55.233Z,10.20
2019-04-07T22:35:04.456Z,10.10
2019-04-07T22:39:07.851Z,10.10
2019-04-07T22:43:16.683Z,10.10
2019-04-07T22:47:22.285Z,10.10
2019-04-07T22:51:28.300Z,10.10
2019-04-07T22:55:35.931Z,10.10
2019-04-07T22:59:40.705Z,10.00
2019-04-07T23:03:45.985Z,9.90
2019-04-07T23:07:52.161Z,9.70
2019-04-07T23:12:00.520Z,9.40
2019-04-07T23:16:10.724Z,9.20
2019-04-07T23:20:13.074Z,9.10
2019-04-07T23:24:19.430Z,9.00
2019-04-07T23:28:25.010Z,9.00
2019-04-07T23:32:31.257Z,9.00
2019-04-07T23:36:36.484Z,9.00
2019-04-07T23:40:41.942Z,9.00
2019-04-07T23:44:47.833Z,9.00
2019-04-07T23:48:53.949Z,9.00
2019-04-07T23:53:02.421Z,8.90
2019-04-07T23:57:07.752Z,8.90
